createdAt,value
2023-03-28T00:01:09.705Z,1.17
2023-03-28T00:03:40.080Z,1.20
2023-03-28T00:06:11.200Z,1.10
2023-03-28T00:08:40.212Z,1.20
2023-03-28T00:11:11.931Z,1.10
2023-03-28T00:13:40.464Z,1.30
2023-03-28T00:16:12.856Z,1.10
2023-03-28T00:18:42.633Z,1.10
2023-03-28T00:21:23.235Z,1.30
2023-03-28T00:23:54.984Z,1.20
2023-03-28T00:26:26.846Z,1.10
2023-03-28T00:28:55.977Z,1.20
2023-03-28T00:31:26.646Z,1.63
2023-03-28T00:33:55.323Z,1.30
2023-03-28T00:36:26.709Z,1.40
2023-03-28T00:38:55.075Z,1.20
2023-03-28T00:41:24.449Z,1.47
2023-03-28T00:43:55.313Z,1.10
2023-03-28T00:46:30.682Z,1.10
2023-03-28T00:49:02.224Z,1.60
2023-03-28T00:51:34.616Z,1.40
2023-03-28T00:54:04.187Z,1.40
2023-03-28T00:56:35.208Z,1.53
2023-03-28T00:59:06.904Z,1.10
2023-03-28T01:01:38.999Z,1.60
2023-03-28T01:04:10.264Z,0.93
2023-03-28T01:06:46.357Z,1.63
2023-03-28T01:09:18.209Z,1.10
2023-03-28T01:11:51.256Z,1.70
2023-03-28T01:14:24.672Z,1.00
2023-03-28T01:16:57.683Z,1.00
2023-03-28T01:19:42.715Z,1.17
2023-03-28T01:22:38.027Z,0.80
2023-03-28T01:25:43.566Z,0.93
2023-03-28T01:28:24.788Z,1.40
2023-03-28T01:31:28.664Z,1.03
2023-03-28T01:34:34.411Z,1.10
2023-03-28T01:37:26.276Z,1.10
2023-03-28T01:40:20.852Z,0.90
2023-03-28T01:43:07.334Z,0.90
2023-03-28T01:45:43.420Z,1.23
2023-03-28T01:48:21.587Z,1.53
2023-03-28T01:50:53.123Z,1.13
2023-03-28T01:53:29.588Z,1.10
2023-03-28T01:56:03.338Z,1.07
2023-03-28T01:58:38.560Z,1.37
2023-03-28T02:01:15.677Z,1.20
2023-03-28T02:03:49.141Z,1.20
2023-03-28T02:06:34.642Z,0.90
2023-03-28T02:09:07.869Z,1.20
2023-03-28T02:12:00.404Z,1.30
2023-03-28T02:14:47.094Z,1.30
2023-03-28T02:17:29.154Z,1.00
2023-03-28T02:20:29.892Z,1.10
2023-03-28T02:23:39.532Z,1.27
2023-03-28T02:26:35.257Z,1.20
2023-03-28T02:29:19.567Z,1.17
2023-03-28T02:31:58.693Z,1.30
2023-03-28T02:34:27.000Z,1.40
2023-03-28T02:37:04.377Z,1.40
2023-03-28T02:39:51.767Z,1.43
2023-03-28T02:42:52.547Z,1.57
2023-03-28T02:45:52.295Z,1.10
2023-03-28T02:48:38.139Z,1.00
2023-03-28T02:51:16.199Z,1.40
2023-03-28T02:53:58.141Z,1.67
2023-03-28T02:56:37.065Z,1.57
2023-03-28T02:59:19.645Z,1.13
2023-03-28T03:01:47.878Z,1.60
2023-03-28T03:04:17.541Z,1.17
2023-03-28T03:06:48.337Z,1.20
2023-03-28T03:09:18.521Z,1.40
2023-03-28T03:11:46.651Z,1.50
2023-03-28T03:14:16.142Z,1.77
2023-03-28T03:16:45.103Z,1.97
2023-03-28T03:19:13.527Z,2.30
2023-03-28T03:21:43.775Z,2.87
2023-03-28T03:24:11.864Z,2.10
2023-03-28T03:26:43.625Z,2.57
2023-03-28T03:29:18.360Z,2.00
2023-03-28T03:31:46.641Z,2.90
2023-03-28T03:34:47.088Z,2.23
2023-03-28T03:37:17.782Z,2.30
2023-03-28T03:39:46.042Z,2.13
2023-03-28T03:42:16.034Z,1.60
2023-03-28T03:44:45.627Z,2.17
2023-03-28T03:47:17.807Z,2.10
2023-03-28T03:49:48.673Z,1.70
2023-03-28T03:52:16.976Z,1.27
2023-03-28T03:54:45.379Z,1.20
2023-03-28T03:57:14.500Z,1.40
2023-03-28T03:59:42.741Z,1.03
2023-03-28T04:02:16.781Z,1.43
2023-03-28T04:04:59.767Z,1.00
2023-03-28T04:07:46.028Z,1.53
2023-03-28T04:10:27.444Z,1.40
2023-03-28T04:12:56.565Z,1.53
2023-03-28T04:15:25.065Z,1.80
2023-03-28T04:18:09.910Z,1.50
2023-03-28T04:20:43.838Z,1.50
2023-03-28T04:23:12.129Z,1.63
2023-03-28T04:25:42.426Z,1.93
2023-03-28T04:28:16.265Z,1.60
2023-03-28T04:31:07.383Z,1.63
2023-03-28T04:34:06.401Z,1.53
2023-03-28T04:36:41.026Z,2.53
2023-03-28T04:39:09.412Z,2.90
2023-03-28T04:41:46.488Z,3.17
2023-03-28T04:44:27.373Z,2.77
2023-03-28T04:47:01.202Z,2.83
2023-03-28T04:49:30.689Z,2.30
2023-03-28T04:51:59.021Z,1.97
2023-03-28T04:54:27.886Z,2.07
2023-03-28T04:57:07.596Z,1.93
2023-03-28T04:59:44.069Z,1.80
2023-03-28T05:02:22.721Z,1.60
2023-03-28T05:05:02.583Z,2.07
2023-03-28T05:07:30.791Z,1.40
2023-03-28T05:09:59.201Z,1.57
2023-03-28T05:12:34.511Z,1.27
2023-03-28T05:15:05.351Z,1.40
2023-03-28T05:17:41.513Z,2.53
2023-03-28T05:20:21.492Z,2.47
2023-03-28T05:22:53.923Z,2.37
2023-03-28T05:25:22.964Z,2.40
2023-03-28T05:27:51.937Z,2.33
2023-03-28T05:30:20.660Z,2.67
2023-03-28T05:32:52.916Z,2.30
2023-03-28T05:35:22.918Z,2.40
2023-03-28T05:37:52.235Z,2.33
2023-03-28T05:40:20.550Z,2.23
2023-03-28T05:42:51.794Z,2.10
2023-03-28T05:45:22.109Z,2.10
2023-03-28T05:48:22.414Z,1.80
2023-03-28T05:50:52.060Z,2.57
2023-03-28T05:53:20.232Z,1.70
2023-03-28T05:55:49.653Z,2.03
2023-03-28T05:58:20.144Z,2.20
2023-03-28T06:00:48.245Z,2.73
2023-03-28T06:03:17.449Z,3.07
2023-03-28T06:05:47.280Z,2.57
2023-03-28T06:08:23.158Z,3.10
2023-03-28T06:10:52.792Z,2.80
2023-03-28T06:13:26.586Z,3.00
2023-03-28T06:15:56.185Z,3.40
2023-03-28T06:18:32.074Z,2.27
2023-03-28T06:21:01.689Z,2.93
2023-03-28T06:23:31.752Z,1.97
2023-03-28T06:26:01.477Z,2.70
2023-03-28T06:28:35.700Z,2.90
2023-03-28T06:31:26.690Z,2.30
2023-03-28T06:33:54.809Z,1.80
2023-03-28T06:36:23.965Z,1.60
2023-03-28T06:38:54.928Z,1.80
2023-03-28T06:41:25.449Z,1.70
2023-03-28T06:43:54.862Z,1.57
2023-03-28T06:46:43.350Z,1.63
2023-03-28T06:49:13.320Z,1.80
2023-03-28T06:52:08.090Z,1.97
2023-03-28T06:54:38.565Z,1.93
2023-03-28T06:57:07.953Z,1.93
2023-03-28T06:59:38.650Z,1.67
2023-03-28T07:02:11.739Z,2.00
2023-03-28T07:04:41.239Z,1.73
2023-03-28T07:07:09.619Z,2.27
2023-03-28T07:09:39.241Z,1.60
2023-03-28T07:12:14.005Z,1.97
2023-03-28T07:14:44.505Z,1.50
2023-03-28T07:17:12.974Z,1.83
2023-03-28T07:19:41.352Z,1.70
2023-03-28T07:22:09.713Z,1.93
2023-03-28T07:24:39.477Z,2.17
2023-03-28T07:27:15.761Z,2.30
2023-03-28T07:29:46.437Z,1.73
2023-03-28T07:32:15.708Z,1.80
2023-03-28T07:34:46.324Z,2.07
2023-03-28T07:37:20.086Z,2.00
2023-03-28T07:40:27.901Z,2.30
2023-03-28T07:42:57.342Z,1.77
2023-03-28T07:45:25.456Z,1.70
2023-03-28T07:47:54.133Z,1.70
2023-03-28T07:50:24.856Z,2.40
2023-03-28T07:52:57.564Z,3.17
2023-03-28T07:55:29.866Z,1.90
2023-03-28T07:57:58.497Z,2.97
2023-03-28T08:00:30.883Z,2.00
2023-03-28T08:03:18.773Z,2.10
2023-03-28T08:05:51.630Z,1.93
2023-03-28T08:08:21.943Z,2.00
2023-03-28T08:11:05.734Z,2.43
2023-03-28T08:13:34.084Z,1.77
2023-03-28T08:16:08.909Z,1.73
2023-03-28T08:18:37.070Z,1.50
2023-03-28T08:21:06.403Z,1.90
2023-03-28T08:23:35.262Z,1.63
2023-03-28T08:26:10.357Z,1.30
2023-03-28T08:28:41.265Z,1.33
2023-03-28T08:31:14.107Z,1.63
2023-03-28T08:33:44.858Z,1.30
2023-03-28T08:36:14.964Z,1.17
2023-03-28T08:38:45.797Z,1.80
2023-03-28T08:41:30.122Z,1.40
2023-03-28T08:44:34.929Z,1.70
2023-03-28T08:47:07.692Z,1.30
2023-03-28T08:49:42.743Z,1.50
2023-03-28T08:52:12.896Z,1.63
2023-03-28T08:54:46.396Z,1.53
2023-03-28T08:57:22.466Z,1.70
2023-03-28T08:59:57.419Z,1.50
2023-03-28T09:02:29.705Z,1.80
2023-03-28T09:05:11.967Z,1.70
2023-03-28T09:07:56.310Z,1.23
2023-03-28T09:10:31.729Z,1.60
2023-03-28T09:13:24.447Z,1.60
2023-03-28T09:16:16.564Z,1.53
2023-03-28T09:19:11.034Z,1.60
2023-03-28T09:21:57.575Z,1.40
2023-03-28T09:24:49.719Z,1.17
2023-03-28T09:27:25.157Z,1.20
2023-03-28T09:29:59.034Z,1.20
2023-03-28T09:32:31.411Z,1.43
2023-03-28T09:35:00.510Z,1.13
2023-03-28T09:37:32.794Z,1.47
2023-03-28T09:40:08.880Z,1.60
2023-03-28T09:42:56.958Z,2.23
2023-03-28T09:45:53.637Z,1.60
2023-03-28T09:48:41.187Z,1.53
2023-03-28T09:51:17.000Z,1.63
2023-03-28T09:53:46.500Z,1.90
2023-03-28T09:56:22.127Z,1.70
2023-03-28T09:58:53.298Z,1.80
2023-03-28T10:01:40.738Z,1.60
2023-03-28T10:04:37.568Z,1.83
2023-03-28T10:07:43.507Z,1.93
2023-03-28T10:10:37.843Z,1.97
2023-03-28T10:13:11.710Z,1.90
2023-03-28T10:15:43.455Z,1.83
2023-03-28T10:18:32.392Z,1.53
2023-03-28T10:21:15.566Z,1.20
2023-03-28T10:23:52.498Z,1.03
2023-03-28T10:26:26.007Z,1.23
2023-03-28T10:28:57.495Z,1.00
2023-03-28T10:31:29.657Z,1.93
2023-03-28T10:34:26.055Z,1.10
2023-03-28T10:37:25.240Z,0.97
2023-03-28T10:40:29.986Z,1.30
2023-03-28T10:42:59.261Z,1.53
2023-03-28T10:45:51.017Z,1.23
2023-03-28T10:48:39.544Z,1.40
2023-03-28T10:51:21.940Z,1.90
2023-03-28T10:54:12.245Z,1.80
2023-03-28T10:56:52.740Z,1.40
2023-03-28T10:59:42.625Z,1.43
2023-03-28T11:02:35.008Z,1.77
2023-03-28T11:05:19.381Z,1.70
2023-03-28T11:07:57.496Z,1.37
2023-03-28T11:10:47.794Z,1.50
2023-03-28T11:13:49.059Z,1.60
2023-03-28T11:16:25.337Z,1.37
2023-03-28T11:19:21.042Z,1.67
2023-03-28T11:22:01.880Z,1.80
2023-03-28T11:24:41.607Z,1.80
2023-03-28T11:27:26.780Z,2.23
2023-03-28T11:30:06.294Z,1.77
2023-03-28T11:32:47.315Z,2.00
2023-03-28T11:35:22.142Z,2.07
2023-03-28T11:38:00.394Z,2.20
2023-03-28T11:40:37.491Z,1.47
2023-03-28T11:43:14.234Z,2.27
2023-03-28T11:45:52.260Z,1.60
2023-03-28T11:48:29.279Z,1.80
2023-03-28T11:51:06.435Z,1.87
2023-03-28T11:53:52.555Z,1.50
2023-03-28T11:56:31.657Z,1.83
2023-03-28T11:59:28.440Z,1.87
2023-03-28T12:02:04.863Z,2.10
2023-03-28T12:04:40.537Z,1.60
2023-03-28T12:07:17.105Z,2.10
2023-03-28T12:10:00.404Z,1.87
2023-03-28T12:12:33.055Z,2.07
2023-03-28T12:15:06.197Z,1.73
2023-03-28T12:17:46.557Z,1.80
2023-03-28T12:20:20.623Z,1.90
2023-03-28T12:22:55.582Z,2.20
2023-03-28T12:25:48.805Z,1.90
2023-03-28T12:28:28.494Z,2.00
2023-03-28T12:31:06.910Z,1.87
2023-03-28T12:33:46.789Z,2.07
2023-03-28T12:36:35.226Z,2.10
2023-03-28T12:39:18.821Z,1.93
2023-03-28T12:41:48.865Z,1.77
2023-03-28T12:44:23.372Z,1.90
2023-03-28T12:46:58.275Z,1.93
2023-03-28T12:49:35.782Z,2.17
2023-03-28T12:52:13.321Z,2.40
2023-03-28T12:54:57.751Z,1.73
2023-03-28T12:57:47.026Z,1.77
2023-03-28T13:00:40.792Z,2.10
2023-03-28T13:03:47.144Z,1.77
2023-03-28T13:06:29.004Z,1.80
2023-03-28T13:09:29.068Z,2.10
2023-03-28T13:12:03.194Z,1.90
2023-03-28T13:14:37.242Z,1.60
2023-03-28T13:17:19.820Z,2.03
2023-03-28T13:19:52.544Z,1.40
2023-03-28T13:22:30.131Z,1.87
2023-03-28T13:25:23.177Z,1.80
2023-03-28T13:27:53.574Z,1.43
2023-03-28T13:30:26.182Z,1.60
2023-03-28T13:32:58.240Z,1.90
2023-03-28T13:35:50.817Z,1.80
2023-03-28T13:38:33.089Z,1.70
2023-03-28T13:41:06.260Z,1.50
2023-03-28T13:43:43.686Z,1.83
2023-03-28T13:46:16.147Z,1.40
2023-03-28T13:48:50.970Z,1.80
2023-03-28T13:51:23.227Z,2.20
2023-03-28T13:53:51.631Z,1.40
2023-03-28T13:56:26.340Z,1.60
2023-03-28T13:58:56.525Z,1.70
2023-03-28T14:01:27.124Z,1.47
2023-03-28T14:03:57.050Z,1.77
2023-03-28T14:06:26.931Z,1.30
2023-03-28T14:08:56.827Z,2.10
2023-03-28T14:11:30.426Z,1.47
2023-03-28T14:14:08.793Z,1.40
2023-03-28T14:16:38.360Z,1.90
2023-03-28T14:19:10.117Z,1.53
2023-03-28T14:21:38.780Z,1.80
2023-03-28T14:24:08.830Z,1.53
2023-03-28T14:26:38.032Z,2.13
2023-03-28T14:29:11.011Z,1.30
2023-03-28T14:31:41.595Z,1.63
2023-03-28T14:34:24.987Z,1.50
2023-03-28T14:36:59.946Z,1.57
2023-03-28T14:39:30.427Z,1.67
2023-03-28T14:42:02.042Z,2.37
2023-03-28T14:44:31.728Z,1.80
2023-03-28T14:47:01.311Z,1.70
2023-03-28T14:49:32.672Z,1.40
2023-03-28T14:52:03.489Z,1.83
2023-03-28T14:54:34.515Z,1.67
2023-03-28T14:57:04.820Z,1.90
2023-03-28T14:59:36.813Z,2.00
2023-03-28T15:02:06.792Z,1.77
2023-03-28T15:04:36.961Z,1.60
2023-03-28T15:07:09.011Z,1.50
2023-03-28T15:09:37.089Z,1.77
2023-03-28T15:12:09.570Z,1.60
2023-03-28T15:14:42.627Z,1.77
2023-03-28T15:17:18.882Z,1.50
2023-03-28T15:19:52.482Z,1.77
2023-03-28T15:22:24.747Z,1.87
2023-03-28T15:24:53.075Z,2.13
2023-03-28T15:27:26.978Z,2.13
2023-03-28T15:29:55.987Z,2.07
2023-03-28T15:32:24.290Z,3.13
2023-03-28T15:35:01.430Z,3.20
2023-03-28T15:37:29.667Z,3.30
2023-03-28T15:40:19.453Z,8.33
2023-03-28T15:42:49.716Z,7.23
2023-03-28T15:45:41.025Z,6.87
2023-03-28T15:48:16.288Z,7.17
2023-03-28T15:50:51.537Z,3.10
2023-03-28T15:53:21.156Z,4.77
2023-03-28T15:55:51.093Z,4.70
2023-03-28T15:58:23.247Z,5.70
2023-03-28T16:00:52.965Z,4.23
2023-03-28T16:03:34.337Z,2.93
2023-03-28T16:06:30.817Z,2.93
2023-03-28T16:09:15.703Z,2.90
2023-03-28T16:11:44.815Z,2.70
2023-03-28T16:14:31.748Z,2.47
2023-03-28T16:17:35.461Z,2.70
2023-03-28T16:20:22.623Z,2.93
2023-03-28T16:22:52.906Z,3.27
2023-03-28T16:25:21.077Z,2.87
2023-03-28T16:27:49.154Z,2.37
2023-03-28T16:30:20.899Z,2.53
2023-03-28T16:32:49.057Z,2.67
2023-03-28T16:35:17.219Z,2.90
2023-03-28T16:37:45.931Z,2.70
2023-03-28T16:40:15.734Z,2.33
2023-03-28T16:42:44.265Z,2.03
2023-03-28T16:45:13.808Z,1.87
2023-03-28T16:47:42.094Z,1.77
2023-03-28T16:50:10.990Z,2.10
2023-03-28T16:52:40.338Z,2.00
2023-03-28T16:55:09.645Z,1.73
2023-03-28T16:57:39.251Z,2.07
2023-03-28T17:00:09.317Z,2.33
2023-03-28T17:02:37.589Z,2.33
2023-03-28T17:05:07.104Z,2.17
2023-03-28T17:07:35.491Z,2.30
2023-03-28T17:10:04.360Z,2.30
2023-03-28T17:12:34.048Z,2.40
2023-03-28T17:15:04.199Z,2.30
2023-03-28T17:17:32.280Z,3.47
2023-03-28T17:20:01.135Z,2.27
2023-03-28T17:22:29.295Z,2.80
2023-03-28T17:24:57.927Z,2.60
2023-03-28T17:27:26.018Z,2.73
2023-03-28T17:29:54.162Z,3.80
2023-03-28T17:32:23.627Z,3.83
2023-03-28T17:34:52.056Z,3.53
2023-03-28T17:37:22.206Z,3.03
2023-03-28T17:39:50.305Z,2.53
2023-03-28T17:42:18.368Z,2.87
2023-03-28T17:44:46.440Z,2.60
2023-03-28T17:47:14.639Z,3.10
2023-03-28T17:49:44.136Z,3.53
2023-03-28T17:52:12.227Z,3.80
2023-03-28T17:54:41.045Z,4.53
2023-03-28T17:57:09.638Z,4.80
2023-03-28T17:59:37.745Z,4.40
2023-03-28T18:02:05.955Z,3.80
2023-03-28T18:04:34.218Z,4.00
2023-03-28T18:07:27.077Z,2.90
2023-03-28T18:09:56.282Z,3.17
2023-03-28T18:12:24.373Z,2.93
2023-03-28T18:14:52.406Z,2.67
2023-03-28T18:17:20.776Z,3.13
2023-03-28T18:19:48.823Z,3.07
2023-03-28T18:22:16.989Z,3.50
2023-03-28T18:24:46.483Z,3.50
2023-03-28T18:27:14.535Z,3.80
2023-03-28T18:29:42.749Z,3.43
2023-03-28T18:32:10.885Z,3.60
2023-03-28T18:34:39.558Z,3.10
2023-03-28T18:37:07.585Z,2.97
2023-03-28T18:39:36.277Z,2.70
2023-03-28T18:42:07.453Z,2.57
2023-03-28T18:44:37.077Z,2.90
2023-03-28T18:47:05.639Z,2.50
2023-03-28T18:49:34.613Z,2.40
2023-03-28T18:52:04.996Z,2.50
2023-03-28T18:54:33.943Z,2.47
2023-03-28T18:57:03.288Z,2.63
2023-03-28T18:59:32.891Z,2.03
2023-03-28T19:02:00.987Z,2.50
2023-03-28T19:04:29.415Z,2.80
2023-03-28T19:06:57.578Z,3.20
2023-03-28T19:09:26.285Z,2.60
2023-03-28T19:11:55.021Z,2.30
2023-03-28T19:14:23.266Z,2.77
2023-03-28T19:16:52.706Z,2.57
2023-03-28T19:19:20.998Z,2.60
2023-03-28T19:21:49.055Z,2.40
2023-03-28T19:24:17.155Z,2.53
2023-03-28T19:26:45.284Z,2.60
2023-03-28T19:29:13.342Z,2.90
2023-03-28T19:31:41.455Z,2.50
2023-03-28T19:34:16.806Z,2.67
2023-03-28T19:36:44.857Z,2.43
2023-03-28T19:39:13.359Z,2.37
2023-03-28T19:41:41.991Z,2.37
2023-03-28T19:44:10.204Z,2.50
2023-03-28T19:46:38.881Z,2.20
2023-03-28T19:49:07.330Z,2.30
2023-03-28T19:51:36.797Z,2.50
2023-03-28T19:54:05.541Z,2.60
2023-03-28T19:56:33.582Z,2.80
2023-03-28T19:59:01.658Z,3.40
2023-03-28T20:01:29.770Z,3.70
2023-03-28T20:03:57.893Z,4.13
2023-03-28T20:06:26.059Z,4.00
2023-03-28T20:08:55.476Z,3.20
2023-03-28T20:11:23.500Z,2.90
2023-03-28T20:13:51.606Z,2.77
2023-03-28T20:16:19.681Z,2.57
2023-03-28T20:18:48.241Z,2.73
2023-03-28T20:21:16.613Z,2.30
2023-03-28T20:23:44.668Z,2.60
2023-03-28T20:26:16.694Z,2.50
2023-03-28T20:28:49.994Z,2.70
2023-03-28T20:31:19.301Z,2.77
2023-03-28T20:33:47.462Z,2.77
2023-03-28T20:36:16.015Z,2.30
2023-03-28T20:38:44.131Z,2.40
2023-03-28T20:41:14.486Z,2.43
2023-03-28T20:43:46.960Z,2.90
2023-03-28T20:46:18.333Z,2.43
2023-03-28T20:48:48.011Z,2.33
2023-03-28T20:51:17.466Z,2.77
2023-03-28T20:53:47.443Z,2.97
2023-03-28T20:56:18.814Z,2.43
2023-03-28T20:58:47.632Z,3.00
2023-03-28T21:01:17.639Z,2.57
2023-03-28T21:03:49.743Z,2.63
2023-03-28T21:06:19.487Z,2.80
2023-03-28T21:08:50.898Z,3.10
2023-03-28T21:11:23.635Z,2.70
2023-03-28T21:13:51.761Z,3.00
2023-03-28T21:16:21.040Z,2.90
2023-03-28T21:18:49.909Z,4.60
2023-03-28T21:21:20.034Z,4.50
2023-03-28T21:23:48.456Z,4.57
2023-03-28T21:26:18.675Z,4.13
2023-03-28T21:28:48.775Z,3.90
2023-03-28T21:31:19.852Z,3.47
2023-03-28T21:33:48.248Z,3.03
2023-03-28T21:36:18.980Z,3.07
2023-03-28T21:38:48.580Z,3.20
2023-03-28T21:41:17.599Z,3.37
2023-03-28T21:43:47.597Z,3.40
2023-03-28T21:46:18.297Z,3.30
2023-03-28T21:48:48.273Z,3.30
2023-03-28T21:51:17.640Z,3.67
2023-03-28T21:53:45.931Z,4.33
2023-03-28T21:56:14.426Z,4.50
2023-03-28T21:58:42.825Z,4.90
2023-03-28T22:01:14.494Z,4.00
2023-03-28T22:03:42.698Z,4.50
2023-03-28T22:06:11.006Z,4.70
2023-03-28T22:08:39.160Z,5.00
2023-03-28T22:11:14.411Z,4.47
2023-03-28T22:13:44.801Z,5.00
2023-03-28T22:16:15.501Z,5.27
2023-03-28T22:18:49.483Z,5.33
2023-03-28T22:21:17.616Z,5.10
2023-03-28T22:23:47.400Z,5.40
2023-03-28T22:26:16.009Z,4.87
2023-03-28T22:28:44.147Z,5.90
2023-03-28T22:31:12.440Z,4.70
2023-03-28T22:33:42.064Z,5.17
2023-03-28T22:36:11.881Z,5.43
2023-03-28T22:38:40.058Z,5.50
2023-03-28T22:41:08.363Z,5.10
2023-03-28T22:43:38.301Z,5.33
2023-03-28T22:46:07.032Z,5.53
2023-03-28T22:48:38.135Z,5.30
2023-03-28T22:51:11.647Z,5.10
2023-03-28T22:53:40.535Z,4.90
2023-03-28T22:56:10.352Z,5.20
2023-03-28T22:58:38.422Z,5.57
2023-03-28T23:01:07.321Z,5.23
2023-03-28T23:03:35.364Z,5.57
2023-03-28T23:06:05.958Z,4.90
2023-03-28T23:08:35.875Z,5.03
2023-03-28T23:11:04.261Z,4.83
2023-03-28T23:13:32.507Z,5.00
2023-03-28T23:16:01.268Z,5.00
2023-03-28T23:18:30.778Z,4.40
2023-03-28T23:20:58.875Z,5.10
2023-03-28T23:23:27.158Z,4.63
2023-03-28T23:25:57.571Z,5.37
2023-03-28T23:28:25.696Z,4.50
2023-03-28T23:30:53.826Z,4.83
2023-03-28T23:33:21.887Z,4.90
2023-03-28T23:35:49.958Z,4.33
2023-03-28T23:38:17.985Z,4.73
2023-03-28T23:40:46.659Z,4.43
2023-03-28T23:43:16.211Z,4.57
2023-03-28T23:45:44.792Z,4.10
2023-03-28T23:48:13.183Z,4.87
2023-03-28T23:50:41.569Z,4.43
2023-03-28T23:53:09.613Z,3.90
2023-03-28T23:55:37.869Z,3.97
2023-03-28T23:58:06.676Z,3.83
